sensor_id;sensor_type;location;lat;lon;timestamp;P1;durP1;ratioP1;P2;durP2;ratioP2
73239;SDS011;61452;40.054;4.110;2023-11-21T00:02:30;4.00;;;3.70;;
73239;SDS011;61452;40.054;4.110;2023-11-21T00:07:33;3.92;;;3.63;;
73239;SDS011;61452;40.054;4.110;2023-11-21T00:12:35;3.80;;;3.50;;
73239;SDS011;61452;40.054;4.110;2023-11-21T00:17:38;3.75;;;3.45;;
73239;SDS011;61452;40.054;4.110;2023-11-21T00:22:41;4.20;;;3.88;;
73239;SDS011;61452;40.054;4.110;2023-11-21T00:27:43;3.70;;;3.15;;
73239;SDS011;61452;40.054;4.110;2023-11-21T00:32:46;3.80;;;3.50;;
73239;SDS011;61452;40.054;4.110;2023-11-21T00:37:48;3.55;;;3.25;;
73239;SDS011;61452;40.054;4.110;2023-11-21T00:42:51;4.45;;;3.60;;
73239;SDS011;61452;40.054;4.110;2023-11-21T00:47:53;3.85;;;3.55;;
73239;SDS011;61452;40.054;4.110;2023-11-21T00:52:56;3.53;;;3.22;;
73239;SDS011;61452;40.054;4.110;2023-11-21T00:57:58;3.60;;;3.30;;
73239;SDS011;61452;40.054;4.110;2023-11-21T01:03:00;4.45;;;3.50;;
73239;SDS011;61452;40.054;4.110;2023-11-21T01:08:04;3.55;;;3.25;;
73239;SDS011;61452;40.054;4.110;2023-11-21T01:13:07;4.28;;;3.28;;
73239;SDS011;61452;40.054;4.110;2023-11-21T01:18:09;3.30;;;3.00;;
73239;SDS011;61452;40.054;4.110;2023-11-21T01:23:11;3.33;;;3.03;;
73239;SDS011;61452;40.054;4.110;2023-11-21T01:28:14;3.30;;;2.95;;
73239;SDS011;61452;40.054;4.110;2023-11-21T01:33:16;3.10;;;2.80;;
73239;SDS011;61452;40.054;4.110;2023-11-21T01:38:19;3.08;;;2.80;;
73239;SDS011;61452;40.054;4.110;2023-11-21T01:43:21;3.00;;;2.70;;
73239;SDS011;61452;40.054;4.110;2023-11-21T01:48:23;3.10;;;2.80;;
73239;SDS011;61452;40.054;4.110;2023-11-21T01:53:26;3.22;;;2.92;;
73239;SDS011;61452;40.054;4.110;2023-11-21T01:58:30;3.97;;;2.67;;
73239;SDS011;61452;40.054;4.110;2023-11-21T02:03:34;3.92;;;2.50;;
73239;SDS011;61452;40.054;4.110;2023-11-21T02:08:36;3.10;;;2.80;;
73239;SDS011;61452;40.054;4.110;2023-11-21T02:13:39;2.33;;;2.10;;
73239;SDS011;61452;40.054;4.110;2023-11-21T02:18:45;3.83;;;2.40;;
73239;SDS011;61452;40.054;4.110;2023-11-21T02:23:49;2.28;;;2.00;;
73239;SDS011;61452;40.054;4.110;2023-11-21T02:33:55;2.70;;;2.50;;
73239;SDS011;61452;40.054;4.110;2023-11-21T02:38:57;4.03;;;2.40;;
73239;SDS011;61452;40.054;4.110;2023-11-21T02:43:59;2.40;;;2.20;;
73239;SDS011;61452;40.054;4.110;2023-11-21T02:49:04;3.22;;;2.15;;
73239;SDS011;61452;40.054;4.110;2023-11-21T02:54:12;4.45;;;2.35;;
73239;SDS011;61452;40.054;4.110;2023-11-21T02:59:14;4.57;;;2.10;;
73239;SDS011;61452;40.054;4.110;2023-11-21T03:04:17;3.00;;;2.15;;
73239;SDS011;61452;40.054;4.110;2023-11-21T03:09:19;2.92;;;2.08;;
73239;SDS011;61452;40.054;4.110;2023-11-21T03:14:21;2.97;;;1.90;;
73239;SDS011;61452;40.054;4.110;2023-11-21T03:19:24;3.65;;;1.88;;
73239;SDS011;61452;40.054;4.110;2023-11-21T03:24:26;2.70;;;1.90;;
73239;SDS011;61452;40.054;4.110;2023-11-21T03:29:28;2.40;;;1.90;;
73239;SDS011;61452;40.054;4.110;2023-11-21T03:34:30;2.60;;;1.98;;
73239;SDS011;61452;40.054;4.110;2023-11-21T03:39:32;3.38;;;1.92;;
73239;SDS011;61452;40.054;4.110;2023-11-21T03:44:34;1.88;;;1.65;;
73239;SDS011;61452;40.054;4.110;2023-11-21T03:49:37;4.63;;;1.85;;
73239;SDS011;61452;40.054;4.110;2023-11-21T03:54:39;4.32;;;1.80;;
73239;SDS011;61452;40.054;4.110;2023-11-21T03:59:42;2.90;;;1.60;;
73239;SDS011;61452;40.054;4.110;2023-11-21T04:04:45;4.82;;;1.73;;
73239;SDS011;61452;40.054;4.110;2023-11-21T04:09:47;3.10;;;1.65;;
73239;SDS011;61452;40.054;4.110;2023-11-21T04:14:49;3.58;;;1.60;;
73239;SDS011;61452;40.054;4.110;2023-11-21T04:19:54;2.67;;;1.60;;
73239;SDS011;61452;40.054;4.110;2023-11-21T04:24:57;4.95;;;1.50;;
73239;SDS011;61452;40.054;4.110;2023-11-21T04:29:59;5.38;;;1.85;;
73239;SDS011;61452;40.054;4.110;2023-11-21T04:35:01;4.28;;;1.48;;
73239;SDS011;61452;40.054;4.110;2023-11-21T04:40:05;6.53;;;1.83;;
73239;SDS011;61452;40.054;4.110;2023-11-21T04:45:09;5.00;;;1.65;;
73239;SDS011;61452;40.054;4.110;2023-11-21T04:50:13;4.88;;;1.45;;
73239;SDS011;61452;40.054;4.110;2023-11-21T04:55:15;4.43;;;1.55;;
73239;SDS011;61452;40.054;4.110;2023-11-21T05:00:18;7.72;;;2.53;;
73239;SDS011;61452;40.054;4.110;2023-11-21T05:05:20;5.60;;;1.75;;
73239;SDS011;61452;40.054;4.110;2023-11-21T05:10:22;7.22;;;1.90;;
73239;SDS011;61452;40.054;4.110;2023-11-21T05:15:24;12.60;;;2.90;;
73239;SDS011;61452;40.054;4.110;2023-11-21T05:20:26;14.80;;;3.95;;
73239;SDS011;61452;40.054;4.110;2023-11-21T05:25:29;11.77;;;2.53;;
73239;SDS011;61452;40.054;4.110;2023-11-21T05:30:31;9.73;;;1.92;;
73239;SDS011;61452;40.054;4.110;2023-11-21T05:35:33;7.30;;;2.15;;
73239;SDS011;61452;40.054;4.110;2023-11-21T05:40:36;9.73;;;2.00;;
73239;SDS011;61452;40.054;4.110;2023-11-21T05:45:39;13.15;;;2.35;;
73239;SDS011;61452;40.054;4.110;2023-11-21T05:50:41;7.82;;;1.80;;
73239;SDS011;61452;40.054;4.110;2023-11-21T05:55:43;8.10;;;2.15;;
73239;SDS011;61452;40.054;4.110;2023-11-21T06:00:45;9.20;;;2.88;;
73239;SDS011;61452;40.054;4.110;2023-11-21T06:05:47;11.60;;;2.10;;
73239;SDS011;61452;40.054;4.110;2023-11-21T06:10:49;9.02;;;2.05;;
73239;SDS011;61452;40.054;4.110;2023-11-21T06:15:52;10.70;;;2.15;;
73239;SDS011;61452;40.054;4.110;2023-11-21T06:20:54;15.15;;;2.42;;
73239;SDS011;61452;40.054;4.110;2023-11-21T06:25:56;10.68;;;2.35;;
73239;SDS011;61452;40.054;4.110;2023-11-21T06:30:59;9.68;;;2.05;;
73239;SDS011;61452;40.054;4.110;2023-11-21T06:36:07;10.35;;;2.22;;
73239;SDS011;61452;40.054;4.110;2023-11-21T06:41:09;9.70;;;2.40;;
73239;SDS011;61452;40.054;4.110;2023-11-21T06:46:12;10.25;;;2.40;;
73239;SDS011;61452;40.054;4.110;2023-11-21T06:51:16;11.20;;;2.33;;
73239;SDS011;61452;40.054;4.110;2023-11-21T06:56:18;10.13;;;2.28;;
73239;SDS011;61452;40.054;4.110;2023-11-21T07:01:21;8.10;;;2.08;;
73239;SDS011;61452;40.054;4.110;2023-11-21T07:06:23;8.30;;;2.80;;
73239;SDS011;61452;40.054;4.110;2023-11-21T07:11:25;11.38;;;2.65;;
73239;SDS011;61452;40.054;4.110;2023-11-21T07:16:27;11.90;;;2.40;;
73239;SDS011;61452;40.054;4.110;2023-11-21T07:21:31;10.10;;;2.42;;
73239;SDS011;61452;40.054;4.110;2023-11-21T07:26:34;10.18;;;2.55;;
73239;SDS011;61452;40.054;4.110;2023-11-21T07:31:37;14.80;;;2.67;;
73239;SDS011;61452;40.054;4.110;2023-11-21T07:36:40;14.38;;;3.45;;
73239;SDS011;61452;40.054;4.110;2023-11-21T07:41:42;12.27;;;2.63;;
73239;SDS011;61452;40.054;4.110;2023-11-21T07:46:50;17.40;;;2.63;;
73239;SDS011;61452;40.054;4.110;2023-11-21T07:51:53;15.15;;;2.78;;
73239;SDS011;61452;40.054;4.110;2023-11-21T07:56:55;22.13;;;4.72;;
73239;SDS011;61452;40.054;4.110;2023-11-21T08:01:57;18.15;;;3.75;;
73239;SDS011;61452;40.054;4.110;2023-11-21T08:06:59;20.65;;;3.70;;
73239;SDS011;61452;40.054;4.110;2023-11-21T08:12:01;13.95;;;2.80;;
73239;SDS011;61452;40.054;4.110;2023-11-21T08:17:04;16.92;;;3.28;;
73239;SDS011;61452;40.054;4.110;2023-11-21T08:22:08;14.32;;;2.88;;
73239;SDS011;61452;40.054;4.110;2023-11-21T08:27:10;20.98;;;3.97;;
73239;SDS011;61452;40.054;4.110;2023-11-21T08:32:13;12.00;;;2.30;;
73239;SDS011;61452;40.054;4.110;2023-11-21T08:37:15;22.33;;;3.72;;
73239;SDS011;61452;40.054;4.110;2023-11-21T08:42:17;26.92;;;5.65;;
73239;SDS011;61452;40.054;4.110;2023-11-21T08:47:19;31.08;;;5.22;;
73239;SDS011;61452;40.054;4.110;2023-11-21T08:52:21;25.40;;;4.07;;
73239;SDS011;61452;40.054;4.110;2023-11-21T08:57:24;27.27;;;5.43;;
73239;SDS011;61452;40.054;4.110;2023-11-21T09:02:27;27.08;;;5.78;;
73239;SDS011;61452;40.054;4.110;2023-11-21T09:07:29;27.88;;;7.25;;
73239;SDS011;61452;40.054;4.110;2023-11-21T09:12:32;33.38;;;5.70;;
73239;SDS011;61452;40.054;4.110;2023-11-21T09:17:34;23.52;;;4.85;;
73239;SDS011;61452;40.054;4.110;2023-11-21T09:22:37;41.63;;;7.18;;
73239;SDS011;61452;40.054;4.110;2023-11-21T09:27:39;22.00;;;4.63;;
73239;SDS011;61452;40.054;4.110;2023-11-21T09:32:41;39.53;;;6.20;;
73239;SDS011;61452;40.054;4.110;2023-11-21T09:37:48;24.85;;;4.32;;
73239;SDS011;61452;40.054;4.110;2023-11-21T09:42:55;23.23;;;6.20;;
73239;SDS011;61452;40.054;4.110;2023-11-21T09:48:01;36.78;;;6.90;;
73239;SDS011;61452;40.054;4.110;2023-11-21T09:58:20;31.90;;;5.50;;
73239;SDS011;61452;40.054;4.110;2023-11-21T10:03:24;30.60;;;5.72;;
73239;SDS011;61452;40.054;4.110;2023-11-21T10:08:26;41.15;;;7.63;;
73239;SDS011;61452;40.054;4.110;2023-11-21T10:13:47;18.23;;;4.38;;
73239;SDS011;61452;40.054;4.110;2023-11-21T10:18:52;22.00;;;4.25;;
73239;SDS011;61452;40.054;4.110;2023-11-21T10:24:11;44.13;;;7.72;;
73239;SDS011;61452;40.054;4.110;2023-11-21T10:29:14;34.55;;;6.65;;
73239;SDS011;61452;40.054;4.110;2023-11-21T10:34:19;47.75;;;8.18;;
73239;SDS011;61452;40.054;4.110;2023-11-21T10:39:22;42.20;;;7.30;;
73239;SDS011;61452;40.054;4.110;2023-11-21T10:44:25;38.58;;;6.20;;
73239;SDS011;61452;40.054;4.110;2023-11-21T10:49:28;27.92;;;4.43;;
73239;SDS011;61452;40.054;4.110;2023-11-21T10:54:30;22.45;;;4.55;;
73239;SDS011;61452;40.054;4.110;2023-11-21T10:59:32;42.35;;;8.05;;
73239;SDS011;61452;40.054;4.110;2023-11-21T11:04:34;26.80;;;5.63;;
73239;SDS011;61452;40.054;4.110;2023-11-21T11:09:40;17.63;;;2.80;;
73239;SDS011;61452;40.054;4.110;2023-11-21T11:14:42;25.55;;;5.18;;
73239;SDS011;61452;40.054;4.110;2023-11-21T11:19:47;9.93;;;2.50;;
73239;SDS011;61452;40.054;4.110;2023-11-21T11:31:04;30.85;;;5.60;;
73239;SDS011;61452;40.054;4.110;2023-11-21T11:35:57;20.88;;;3.67;;
73239;SDS011;61452;40.054;4.110;2023-11-21T11:41:06;32.75;;;5.13;;
73239;SDS011;61452;40.054;4.110;2023-11-21T11:46:11;24.08;;;5.80;;
73239;SDS011;61452;40.054;4.110;2023-11-21T11:51:17;19.73;;;4.18;;
73239;SDS011;61452;40.054;4.110;2023-11-21T11:56:30;21.77;;;3.38;;
73239;SDS011;61452;40.054;4.110;2023-11-21T12:01:36;10.55;;;1.70;;
73239;SDS011;61452;40.054;4.110;2023-11-21T12:06:38;22.05;;;3.50;;
73239;SDS011;61452;40.054;4.110;2023-11-21T12:11:40;32.58;;;4.75;;
73239;SDS011;61452;40.054;4.110;2023-11-21T12:16:43;12.55;;;2.00;;
73239;SDS011;61452;40.054;4.110;2023-11-21T12:21:45;40.08;;;4.57;;
73239;SDS011;61452;40.054;4.110;2023-11-21T12:26:47;16.35;;;2.33;;
73239;SDS011;61452;40.054;4.110;2023-11-21T12:31:50;18.25;;;2.50;;
73239;SDS011;61452;40.054;4.110;2023-11-21T12:36:52;17.00;;;2.45;;
73239;SDS011;61452;40.054;4.110;2023-11-21T12:46:58;28.52;;;5.15;;
73239;SDS011;61452;40.054;4.110;2023-11-21T12:52:01;20.48;;;2.50;;
73239;SDS011;61452;40.054;4.110;2023-11-21T12:57:05;21.98;;;3.60;;
73239;SDS011;61452;40.054;4.110;2023-11-21T13:02:10;13.68;;;2.20;;
73239;SDS011;61452;40.054;4.110;2023-11-21T13:07:16;29.92;;;4.70;;
73239;SDS011;61452;40.054;4.110;2023-11-21T13:12:23;13.02;;;1.90;;
73239;SDS011;61452;40.054;4.110;2023-11-21T13:17:26;27.50;;;3.72;;
73239;SDS011;61452;40.054;4.110;2023-11-21T13:22:28;51.40;;;7.68;;
73239;SDS011;61452;40.054;4.110;2023-11-21T13:27:30;25.50;;;3.03;;
73239;SDS011;61452;40.054;4.110;2023-11-21T13:32:34;41.08;;;6.90;;
73239;SDS011;61452;40.054;4.110;2023-11-21T13:37:36;35.38;;;4.78;;
73239;SDS011;61452;40.054;4.110;2023-11-21T13:42:38;35.92;;;4.22;;
73239;SDS011;61452;40.054;4.110;2023-11-21T13:47:40;39.22;;;5.43;;
73239;SDS011;61452;40.054;4.110;2023-11-21T13:52:43;25.80;;;3.47;;
73239;SDS011;61452;40.054;4.110;2023-11-21T13:57:46;12.35;;;2.17;;
73239;SDS011;61452;40.054;4.110;2023-11-21T14:02:51;27.77;;;3.42;;
73239;SDS011;61452;40.054;4.110;2023-11-21T14:07:53;26.48;;;3.30;;
73239;SDS011;61452;40.054;4.110;2023-11-21T14:12:57;17.70;;;2.78;;
73239;SDS011;61452;40.054;4.110;2023-11-21T14:18:00;21.52;;;3.25;;
73239;SDS011;61452;40.054;4.110;2023-11-21T14:23:07;11.35;;;1.52;;
73239;SDS011;61452;40.054;4.110;2023-11-21T14:28:09;17.35;;;2.97;;
73239;SDS011;61452;40.054;4.110;2023-11-21T14:38:18;21.55;;;3.40;;
73239;SDS011;61452;40.054;4.110;2023-11-21T14:43:20;31.70;;;4.30;;
73239;SDS011;61452;40.054;4.110;2023-11-21T14:48:22;24.73;;;2.83;;
73239;SDS011;61452;40.054;4.110;2023-11-21T14:53:43;18.08;;;2.80;;
73239;SDS011;61452;40.054;4.110;2023-11-21T14:58:56;18.38;;;3.20;;
73239;SDS011;61452;40.054;4.110;2023-11-21T15:09:01;18.83;;;2.67;;
73239;SDS011;61452;40.054;4.110;2023-11-21T15:14:09;10.27;;;2.45;;
73239;SDS011;61452;40.054;4.110;2023-11-21T15:19:14;11.80;;;2.00;;
73239;SDS011;61452;40.054;4.110;2023-11-21T15:24:20;12.55;;;2.28;;
73239;SDS011;61452;40.054;4.110;2023-11-21T15:29:22;12.98;;;1.80;;
73239;SDS011;61452;40.054;4.110;2023-11-21T15:34:24;12.43;;;2.15;;
73239;SDS011;61452;40.054;4.110;2023-11-21T15:39:30;12.93;;;2.42;;
73239;SDS011;61452;40.054;4.110;2023-11-21T15:44:32;13.45;;;2.88;;
73239;SDS011;61452;40.054;4.110;2023-11-21T15:49:35;15.13;;;2.30;;
73239;SDS011;61452;40.054;4.110;2023-11-21T15:54:39;10.93;;;2.63;;
73239;SDS011;61452;40.054;4.110;2023-11-21T15:59:42;14.85;;;3.35;;
73239;SDS011;61452;40.054;4.110;2023-11-21T16:04:45;8.50;;;2.05;;
73239;SDS011;61452;40.054;4.110;2023-11-21T16:09:47;15.02;;;2.80;;
73239;SDS011;61452;40.054;4.110;2023-11-21T16:14:51;14.60;;;2.58;;
73239;SDS011;61452;40.054;4.110;2023-11-21T16:19:53;13.32;;;2.50;;
73239;SDS011;61452;40.054;4.110;2023-11-21T16:24:57;13.65;;;2.78;;
73239;SDS011;61452;40.054;4.110;2023-11-21T16:29:59;14.25;;;2.92;;
73239;SDS011;61452;40.054;4.110;2023-11-21T16:35:02;16.73;;;2.78;;
73239;SDS011;61452;40.054;4.110;2023-11-21T16:40:07;19.15;;;3.05;;
73239;SDS011;61452;40.054;4.110;2023-11-21T16:45:11;16.17;;;2.78;;
73239;SDS011;61452;40.054;4.110;2023-11-21T16:50:13;17.17;;;3.53;;
73239;SDS011;61452;40.054;4.110;2023-11-21T16:55:15;18.27;;;3.75;;
73239;SDS011;61452;40.054;4.110;2023-11-21T17:00:17;17.83;;;2.80;;
73239;SDS011;61452;40.054;4.110;2023-11-21T17:05:27;20.25;;;4.38;;
73239;SDS011;61452;40.054;4.110;2023-11-21T17:10:29;19.45;;;3.47;;
73239;SDS011;61452;40.054;4.110;2023-11-21T17:15:32;13.27;;;2.35;;
73239;SDS011;61452;40.054;4.110;2023-11-21T17:20:34;18.92;;;2.38;;
73239;SDS011;61452;40.054;4.110;2023-11-21T17:25:36;12.07;;;2.70;;
73239;SDS011;61452;40.054;4.110;2023-11-21T17:30:38;13.88;;;2.83;;
73239;SDS011;61452;40.054;4.110;2023-11-21T17:35:40;14.98;;;2.65;;
73239;SDS011;61452;40.054;4.110;2023-11-21T17:40:46;16.95;;;2.38;;
73239;SDS011;61452;40.054;4.110;2023-11-21T17:45:48;17.60;;;2.40;;
73239;SDS011;61452;40.054;4.110;2023-11-21T17:50:50;14.15;;;2.58;;
73239;SDS011;61452;40.054;4.110;2023-11-21T17:55:52;15.20;;;2.45;;
73239;SDS011;61452;40.054;4.110;2023-11-21T18:00:54;14.65;;;2.15;;
73239;SDS011;61452;40.054;4.110;2023-11-21T18:05:57;19.55;;;2.85;;
73239;SDS011;61452;40.054;4.110;2023-11-21T18:10:59;13.32;;;2.30;;
73239;SDS011;61452;40.054;4.110;2023-11-21T18:16:02;12.75;;;2.85;;
73239;SDS011;61452;40.054;4.110;2023-11-21T18:21:04;14.10;;;2.33;;
73239;SDS011;61452;40.054;4.110;2023-11-21T18:26:08;13.35;;;2.60;;
73239;SDS011;61452;40.054;4.110;2023-11-21T18:31:11;12.15;;;2.47;;
73239;SDS011;61452;40.054;4.110;2023-11-21T18:36:13;17.65;;;2.72;;
73239;SDS011;61452;40.054;4.110;2023-11-21T18:41:22;12.40;;;1.98;;
73239;SDS011;61452;40.054;4.110;2023-11-21T18:46:25;13.38;;;2.58;;
73239;SDS011;61452;40.054;4.110;2023-11-21T18:51:27;15.95;;;2.30;;
73239;SDS011;61452;40.054;4.110;2023-11-21T18:56:29;9.85;;;2.45;;
73239;SDS011;61452;40.054;4.110;2023-11-21T19:01:32;17.75;;;2.60;;
73239;SDS011;61452;40.054;4.110;2023-11-21T19:06:35;16.17;;;2.75;;
73239;SDS011;61452;40.054;4.110;2023-11-21T19:11:37;13.00;;;2.28;;
73239;SDS011;61452;40.054;4.110;2023-11-21T19:16:40;15.35;;;2.40;;
73239;SDS011;61452;40.054;4.110;2023-11-21T19:21:42;11.20;;;1.92;;
73239;SDS011;61452;40.054;4.110;2023-11-21T19:26:45;12.43;;;2.33;;
73239;SDS011;61452;40.054;4.110;2023-11-21T19:31:47;16.95;;;2.50;;
73239;SDS011;61452;40.054;4.110;2023-11-21T19:36:50;11.55;;;1.92;;
73239;SDS011;61452;40.054;4.110;2023-11-21T19:41:53;9.23;;;1.85;;
73239;SDS011;61452;40.054;4.110;2023-11-21T19:46:55;9.82;;;1.63;;
73239;SDS011;61452;40.054;4.110;2023-11-21T19:51:57;11.88;;;2.05;;
73239;SDS011;61452;40.054;4.110;2023-11-21T19:56:59;9.20;;;1.60;;
73239;SDS011;61452;40.054;4.110;2023-11-21T20:02:06;12.18;;;2.33;;
73239;SDS011;61452;40.054;4.110;2023-11-21T20:07:08;11.75;;;1.80;;
73239;SDS011;61452;40.054;4.110;2023-11-21T20:12:10;12.88;;;2.05;;
73239;SDS011;61452;40.054;4.110;2023-11-21T20:17:13;18.35;;;2.20;;
73239;SDS011;61452;40.054;4.110;2023-11-21T20:22:16;8.90;;;1.60;;
73239;SDS011;61452;40.054;4.110;2023-11-21T20:27:20;10.90;;;1.83;;
73239;SDS011;61452;40.054;4.110;2023-11-21T20:32:22;12.50;;;2.28;;
73239;SDS011;61452;40.054;4.110;2023-11-21T20:37:26;9.82;;;1.70;;
73239;SDS011;61452;40.054;4.110;2023-11-21T20:42:28;8.30;;;1.73;;
73239;SDS011;61452;40.054;4.110;2023-11-21T20:47:30;11.93;;;2.00;;
73239;SDS011;61452;40.054;4.110;2023-11-21T20:52:34;12.75;;;1.92;;
73239;SDS011;61452;40.054;4.110;2023-11-21T20:57:36;15.90;;;3.00;;
73239;SDS011;61452;40.054;4.110;2023-11-21T21:02:41;17.45;;;2.80;;
73239;SDS011;61452;40.054;4.110;2023-11-21T21:07:44;16.27;;;2.65;;
73239;SDS011;61452;40.054;4.110;2023-11-21T21:12:46;20.38;;;2.60;;
73239;SDS011;61452;40.054;4.110;2023-11-21T21:17:48;16.50;;;2.75;;
73239;SDS011;61452;40.054;4.110;2023-11-21T21:22:50;17.55;;;3.13;;
73239;SDS011;61452;40.054;4.110;2023-11-21T21:27:54;16.00;;;2.90;;
73239;SDS011;61452;40.054;4.110;2023-11-21T21:32:57;15.65;;;2.85;;
73239;SDS011;61452;40.054;4.110;2023-11-21T21:38:02;19.67;;;3.63;;
73239;SDS011;61452;40.054;4.110;2023-11-21T21:43:05;18.25;;;4.25;;
73239;SDS011;61452;40.054;4.110;2023-11-21T21:48:07;23.25;;;4.15;;
73239;SDS011;61452;40.054;4.110;2023-11-21T21:53:10;26.58;;;4.60;;
73239;SDS011;61452;40.054;4.110;2023-11-21T21:58:14;29.55;;;5.00;;
73239;SDS011;61452;40.054;4.110;2023-11-21T22:03:16;22.58;;;4.55;;
73239;SDS011;61452;40.054;4.110;2023-11-21T22:08:18;26.83;;;5.10;;
73239;SDS011;61452;40.054;4.110;2023-11-21T22:13:20;25.58;;;4.20;;
73239;SDS011;61452;40.054;4.110;2023-11-21T22:18:23;26.05;;;4.75;;
73239;SDS011;61452;40.054;4.110;2023-11-21T22:23:25;25.52;;;4.50;;
73239;SDS011;61452;40.054;4.110;2023-11-21T22:28:27;25.50;;;4.93;;
73239;SDS011;61452;40.054;4.110;2023-11-21T22:33:30;22.85;;;4.78;;
73239;SDS011;61452;40.054;4.110;2023-11-21T22:38:32;24.33;;;4.72;;
73239;SDS011;61452;40.054;4.110;2023-11-21T22:43:34;24.05;;;4.80;;
73239;SDS011;61452;40.054;4.110;2023-11-21T22:48:36;31.65;;;5.82;;
73239;SDS011;61452;40.054;4.110;2023-11-21T22:53:39;37.05;;;5.85;;
73239;SDS011;61452;40.054;4.110;2023-11-21T22:58:41;31.13;;;5.45;;
73239;SDS011;61452;40.054;4.110;2023-11-21T23:03:43;20.67;;;4.70;;
73239;SDS011;61452;40.054;4.110;2023-11-21T23:08:46;20.42;;;4.05;;
73239;SDS011;61452;40.054;4.110;2023-11-21T23:13:49;22.30;;;4.65;;
73239;SDS011;61452;40.054;4.110;2023-11-21T23:18:52;27.88;;;5.13;;
73239;SDS011;61452;40.054;4.110;2023-11-21T23:23:57;25.20;;;4.53;;
73239;SDS011;61452;40.054;4.110;2023-11-21T23:29:08;21.13;;;4.93;;
73239;SDS011;61452;40.054;4.110;2023-11-21T23:34:10;30.00;;;5.45;;
73239;SDS011;61452;40.054;4.110;2023-11-21T23:39:13;31.80;;;6.20;;
73239;SDS011;61452;40.054;4.110;2023-11-21T23:44:16;26.60;;;4.90;;
73239;SDS011;61452;40.054;4.110;2023-11-21T23:49:18;22.20;;;4.22;;
73239;SDS011;61452;40.054;4.110;2023-11-21T23:54:20;31.63;;;6.30;;
73239;SDS011;61452;40.054;4.110;2023-11-21T23:59:24;24.20;;;5.10;;
